createdAt,value
2019-03-27T00:01:14.718Z,5.60
2019-03-27T00:04:02.993Z,5.50
2019-03-27T00:06:51.403Z,5.50
2019-03-27T00:09:39.952Z,5.50
2019-03-27T00:12:27.812Z,5.60
2019-03-27T00:15:16.210Z,5.60
2019-03-27T00:18:04.177Z,5.70
2019-03-27T00:20:52.378Z,5.60
2019-03-27T00:23:40.271Z,5.60
2019-03-27T00:26:28.413Z,5.50
2019-03-27T00:29:16.947Z,5.60
2019-03-27T00:32:05.714Z,5.60
2019-03-27T00:34:53.712Z,5.60
2019-03-27T00:37:41.389Z,5.60
2019-03-27T00:40:29.078Z,5.50
2019-03-27T00:43:17.285Z,5.60
2019-03-27T00:46:05.536Z,5.60
2019-03-27T00:48:53.737Z,5.60
2019-03-27T00:51:41.924Z,5.60
2019-03-27T00:54:30.093Z,5.60
2019-03-27T00:57:18.471Z,5.50
2019-03-27T01:00:09.589Z,5.50
2019-03-27T01:02:57.610Z,5.40
2019-03-27T01:05:45.683Z,5.40
2019-03-27T01:08:34.070Z,5.30
2019-03-27T01:11:22.644Z,5.30
2019-03-27T01:14:10.928Z,5.20
2019-03-27T01:16:58.878Z,5.30
2019-03-27T01:19:47.033Z,5.30
2019-03-27T01:22:34.824Z,5.40
2019-03-27T01:25:22.532Z,5.50
2019-03-27T01:28:10.707Z,5.40
2019-03-27T01:30:58.996Z,5.40
2019-03-27T01:33:47.090Z,5.50
2019-03-27T01:36:35.210Z,5.40
2019-03-27T01:39:22.978Z,5.40
2019-03-27T01:42:11.471Z,5.40
2019-03-27T01:44:59.817Z,5.30
2019-03-27T01:47:47.980Z,5.20
2019-03-27T01:50:36.198Z,5.20
2019-03-27T01:53:23.945Z,5.10
2019-03-27T01:56:12.185Z,5.10
2019-03-27T01:59:00.159Z,5.10
2019-03-27T02:01:47.715Z,5.00
2019-03-27T02:04:35.799Z,5.10
2019-03-27T02:07:23.942Z,5.00
2019-03-27T02:10:13.962Z,4.90
2019-03-27T02:13:02.143Z,4.90
2019-03-27T02:15:50.321Z,5.00
2019-03-27T02:18:38.606Z,5.10
2019-03-27T02:21:26.725Z,5.20
2019-03-27T02:24:14.958Z,5.20
2019-03-27T02:27:03.273Z,5.10
2019-03-27T02:29:51.201Z,5.00
2019-03-27T02:32:39.446Z,5.10
2019-03-27T02:35:27.201Z,4.90
2019-03-27T02:38:15.001Z,4.90
2019-03-27T02:41:03.359Z,4.90
2019-03-27T02:43:51.574Z,5.00
2019-03-27T02:46:40.175Z,5.00
2019-03-27T02:49:28.554Z,5.10
2019-03-27T02:52:16.663Z,5.10
2019-03-27T02:55:04.765Z,5.10
2019-03-27T02:57:53.061Z,5.10
2019-03-27T03:00:41.700Z,5.20
2019-03-27T03:03:29.961Z,5.10
2019-03-27T03:06:17.854Z,5.00
2019-03-27T03:09:06.598Z,5.10
2019-03-27T03:11:55.135Z,5.10
2019-03-27T03:14:42.990Z,5.10
2019-03-27T03:17:31.578Z,5.10
2019-03-27T03:20:19.607Z,5.00
2019-03-27T03:23:07.978Z,5.10
2019-03-27T03:25:56.090Z,5.00
2019-03-27T03:28:44.290Z,5.00
2019-03-27T03:31:32.282Z,4.90
2019-03-27T03:34:20.480Z,4.90
2019-03-27T03:37:08.611Z,4.70
2019-03-27T03:39:56.815Z,4.80
2019-03-27T03:42:45.092Z,4.80
2019-03-27T03:45:33.099Z,4.80
2019-03-27T03:48:21.211Z,4.80
2019-03-27T03:51:10.407Z,4.80
2019-03-27T03:53:58.603Z,4.80
2019-03-27T03:56:48.346Z,4.80
2019-03-27T03:59:38.995Z,4.80
2019-03-27T04:02:28.692Z,4.80
2019-03-27T04:05:20.459Z,4.80
2019-03-27T04:08:08.769Z,4.80
2019-03-27T04:10:56.842Z,4.70
2019-03-27T04:13:45.175Z,4.60
2019-03-27T04:16:33.550Z,4.60
2019-03-27T04:19:21.966Z,4.70
2019-03-27T04:22:26.276Z,4.70
2019-03-27T04:25:24.741Z,4.70
2019-03-27T04:28:38.485Z,4.70
2019-03-27T04:32:04.305Z,4.70
2019-03-27T04:35:14.670Z,4.70
2019-03-27T04:38:45.468Z,4.70
2019-03-27T04:41:39.975Z,4.80
2019-03-27T04:48:50.690Z,4.60
2019-03-27T04:52:10.589Z,4.60
2019-03-27T04:55:25.267Z,4.50
2019-03-27T04:58:28.555Z,4.50
2019-03-27T05:05:39.011Z,4.30
2019-03-27T05:08:45.501Z,4.30
2019-03-27T05:11:54.636Z,4.30
2019-03-27T05:17:52.337Z,4.20
2019-03-27T05:20:43.957Z,4.20
2019-03-27T05:26:45.404Z,4.40
2019-03-27T05:29:36.587Z,4.30
2019-03-27T05:32:25.672Z,4.30
2019-03-27T05:35:23.569Z,4.20
2019-03-27T05:38:36.529Z,4.40
2019-03-27T05:41:39.330Z,4.30
2019-03-27T05:44:40.618Z,4.50
2019-03-27T05:47:58.922Z,4.60
2019-03-27T05:50:37.381Z,4.70
2019-03-27T05:53:26.409Z,4.70
2019-03-27T05:56:17.292Z,4.80
2019-03-27T05:59:09.587Z,4.80
2019-03-27T06:02:07.381Z,4.90
2019-03-27T06:04:55.929Z,4.90
2019-03-27T06:07:51.233Z,5.00
2019-03-27T06:10:49.878Z,5.10
2019-03-27T06:16:37.142Z,5.30
2019-03-27T06:19:35.299Z,5.20
2019-03-27T06:22:24.174Z,5.20
2019-03-27T06:25:12.606Z,5.30
2019-03-27T06:28:01.359Z,5.40
2019-03-27T06:30:49.197Z,5.50
2019-03-27T06:33:37.720Z,5.50
2019-03-27T06:36:26.089Z,5.70
2019-03-27T06:39:14.019Z,5.70
2019-03-27T06:42:02.412Z,5.80
2019-03-27T06:44:50.706Z,5.90
2019-03-27T06:47:39.902Z,5.90
2019-03-27T06:50:28.246Z,5.90
2019-03-27T06:53:16.280Z,5.80
2019-03-27T06:56:04.172Z,5.80
2019-03-27T06:58:54.822Z,6.00
2019-03-27T07:01:41.775Z,6.00
2019-03-27T07:04:29.644Z,6.00
2019-03-27T07:07:17.901Z,6.10
2019-03-27T07:10:06.100Z,6.20
2019-03-27T07:12:54.346Z,6.30
2019-03-27T07:15:42.749Z,6.50
2019-03-27T07:18:39.899Z,6.40
2019-03-27T07:21:20.512Z,6.60
2019-03-27T07:24:08.624Z,6.70
2019-03-27T07:26:56.501Z,6.80
2019-03-27T07:29:44.398Z,6.90
2019-03-27T07:32:32.103Z,6.80
2019-03-27T07:35:19.984Z,6.90
2019-03-27T07:38:07.583Z,6.90
2019-03-27T07:40:55.802Z,7.10
2019-03-27T07:43:44.260Z,7.20
2019-03-27T07:46:32.787Z,7.30
2019-03-27T07:49:20.920Z,7.30
2019-03-27T07:52:09.145Z,7.50
2019-03-27T07:54:57.457Z,7.60
2019-03-27T07:57:45.825Z,7.80
2019-03-27T08:00:34.210Z,7.90
2019-03-27T08:03:22.633Z,7.90
2019-03-27T08:06:10.951Z,8.00
2019-03-27T08:08:59.294Z,8.00
2019-03-27T08:11:47.652Z,8.30
2019-03-27T08:14:35.796Z,8.60
2019-03-27T08:17:23.760Z,8.60
2019-03-27T08:20:12.705Z,8.50
2019-03-27T08:23:00.826Z,8.60
2019-03-27T08:25:48.749Z,8.60
2019-03-27T08:28:36.671Z,8.80
2019-03-27T08:31:24.893Z,8.90
2019-03-27T08:34:12.968Z,8.70
2019-03-27T08:37:00.881Z,8.80
2019-03-27T08:39:48.744Z,8.70
2019-03-27T08:42:36.589Z,8.90
2019-03-27T08:45:24.233Z,9.30
2019-03-27T08:48:12.470Z,9.10
2019-03-27T08:51:00.394Z,9.30
2019-03-27T08:53:48.935Z,9.70
2019-03-27T08:56:36.897Z,10.30
2019-03-27T08:59:24.993Z,10.50
2019-03-27T09:02:12.929Z,11.20
2019-03-27T09:05:01.257Z,11.20
2019-03-27T09:07:50.002Z,11.10
2019-03-27T09:10:37.794Z,11.10
2019-03-27T09:13:26.118Z,11.40
2019-03-27T09:16:14.206Z,11.90
2019-03-27T09:19:01.857Z,12.40
2019-03-27T09:21:50.356Z,12.20
2019-03-27T09:24:38.293Z,12.70
2019-03-27T09:27:26.717Z,12.30
2019-03-27T09:30:15.285Z,11.80
2019-03-27T09:33:03.436Z,11.90
2019-03-27T09:35:51.302Z,12.30
2019-03-27T09:38:39.355Z,12.70
2019-03-27T09:41:27.362Z,13.30
2019-03-27T09:44:15.773Z,13.30
2019-03-27T09:47:03.908Z,12.80
2019-03-27T09:49:51.990Z,12.70
2019-03-27T09:52:40.623Z,12.60
2019-03-27T09:55:28.699Z,13.00
2019-03-27T09:58:16.374Z,13.30
2019-03-27T10:01:06.207Z,13.80
2019-03-27T10:03:54.348Z,13.50
2019-03-27T10:06:41.978Z,14.00
2019-03-27T10:09:29.948Z,14.10
2019-03-27T10:12:18.871Z,14.50
2019-03-27T10:15:07.562Z,14.50
2019-03-27T10:18:14.279Z,15.00
2019-03-27T10:21:02.871Z,15.00
2019-03-27T10:23:51.053Z,13.90
2019-03-27T10:26:42.491Z,14.50
2019-03-27T10:29:29.074Z,14.50
2019-03-27T10:32:17.012Z,14.30
2019-03-27T10:35:05.051Z,14.00
2019-03-27T10:37:53.657Z,14.70
2019-03-27T10:40:41.773Z,15.70
2019-03-27T10:43:30.655Z,15.90
2019-03-27T10:46:19.200Z,16.60
2019-03-27T10:49:07.427Z,16.10
2019-03-27T10:51:55.248Z,14.90
2019-03-27T10:54:43.704Z,14.00
2019-03-27T10:57:32.277Z,13.80
2019-03-27T11:00:21.048Z,13.50
2019-03-27T11:03:09.373Z,13.70
2019-03-27T11:05:59.884Z,13.80
2019-03-27T11:08:48.366Z,13.80
2019-03-27T11:11:37.175Z,13.60
2019-03-27T11:14:37.151Z,13.90
2019-03-27T11:17:18.890Z,13.90
2019-03-27T11:20:07.850Z,13.70
2019-03-27T11:22:56.312Z,13.80
2019-03-27T11:25:44.712Z,14.00
2019-03-27T11:28:32.687Z,14.00
2019-03-27T11:31:20.773Z,13.60
2019-03-27T11:34:09.218Z,13.90
2019-03-27T11:36:57.338Z,13.90
2019-03-27T11:39:45.436Z,13.90
2019-03-27T11:42:33.664Z,13.60
2019-03-27T11:45:21.571Z,13.50
2019-03-27T11:48:09.613Z,13.40
2019-03-27T11:50:57.898Z,13.50
2019-03-27T11:53:46.695Z,13.30
2019-03-27T11:56:35.204Z,13.20
2019-03-27T11:59:23.386Z,12.80
2019-03-27T12:02:11.530Z,12.70
2019-03-27T12:04:59.997Z,12.60
2019-03-27T12:07:47.901Z,13.40
2019-03-27T12:10:35.820Z,14.50
2019-03-27T12:13:23.751Z,15.40
2019-03-27T12:16:11.545Z,15.90
2019-03-27T12:18:59.271Z,16.20
2019-03-27T12:21:47.327Z,16.40
2019-03-27T12:24:35.224Z,17.20
2019-03-27T12:27:23.194Z,17.60
2019-03-27T12:30:11.129Z,18.30
2019-03-27T12:32:59.005Z,18.70
2019-03-27T12:35:47.322Z,18.70
2019-03-27T12:38:35.570Z,18.50
2019-03-27T12:41:23.727Z,17.10
2019-03-27T12:44:12.397Z,16.30
2019-03-27T12:47:00.272Z,15.10
2019-03-27T12:49:48.446Z,14.30
2019-03-27T12:52:36.269Z,13.80
2019-03-27T12:55:24.917Z,13.90
2019-03-27T12:58:13.310Z,13.40
2019-03-27T13:01:01.265Z,13.30
2019-03-27T13:03:49.437Z,13.00
2019-03-27T13:06:37.514Z,13.10
2019-03-27T13:09:25.931Z,13.10
2019-03-27T13:12:13.838Z,13.20
2019-03-27T13:15:01.763Z,13.20
2019-03-27T13:17:49.844Z,13.20
2019-03-27T13:20:38.420Z,13.40
2019-03-27T13:23:26.596Z,13.30
2019-03-27T13:26:15.135Z,13.30
2019-03-27T13:29:03.046Z,13.20
2019-03-27T13:31:51.155Z,13.40
2019-03-27T13:34:39.022Z,13.70
2019-03-27T13:37:26.815Z,14.50
2019-03-27T13:40:16.125Z,14.60
2019-03-27T13:43:03.805Z,14.80
2019-03-27T13:45:52.133Z,14.90
2019-03-27T13:48:40.660Z,14.80
2019-03-27T13:51:40.042Z,15.10
2019-03-27T13:54:19.398Z,15.20
2019-03-27T13:57:07.000Z,15.60
2019-03-27T13:59:54.728Z,16.70
2019-03-27T14:02:42.720Z,16.80
2019-03-27T14:05:30.672Z,16.20
2019-03-27T14:08:18.867Z,15.30
2019-03-27T14:11:08.133Z,14.30
2019-03-27T14:13:56.266Z,13.70
2019-03-27T14:16:44.342Z,13.10
2019-03-27T14:20:02.221Z,13.00
2019-03-27T14:22:52.775Z,12.90
2019-03-27T14:25:41.411Z,13.10
2019-03-27T14:28:30.625Z,13.00
2019-03-27T14:31:21.705Z,13.30
2019-03-27T14:34:10.522Z,13.40
2019-03-27T14:37:02.104Z,13.30
2019-03-27T14:39:50.821Z,13.30
2019-03-27T14:42:39.486Z,13.50
2019-03-27T14:45:28.811Z,14.20
2019-03-27T14:48:19.339Z,17.30
2019-03-27T14:51:08.300Z,18.80
2019-03-27T14:53:56.855Z,18.10
2019-03-27T14:56:45.258Z,18.10
2019-03-27T14:59:33.752Z,17.00
2019-03-27T15:02:50.666Z,16.50
2019-03-27T15:05:51.404Z,16.00
2019-03-27T15:08:52.050Z,15.70
2019-03-27T15:11:43.558Z,15.70
2019-03-27T15:15:23.830Z,15.40
2019-03-27T15:18:12.175Z,15.80
2019-03-27T15:21:02.619Z,15.40
2019-03-27T15:23:51.559Z,15.10
2019-03-27T15:26:40.066Z,14.60
2019-03-27T15:29:40.377Z,14.30
2019-03-27T15:32:31.069Z,14.10
2019-03-27T15:35:25.947Z,13.80
2019-03-27T15:38:16.089Z,13.60
2019-03-27T15:44:20.307Z,13.00
2019-03-27T15:47:36.620Z,12.90
2019-03-27T15:50:24.922Z,13.00
2019-03-27T15:53:14.174Z,13.00
2019-03-27T15:56:02.573Z,13.00
2019-03-27T15:58:51.185Z,13.10
2019-03-27T16:01:39.650Z,13.10
2019-03-27T16:04:30.889Z,13.20
2019-03-27T16:07:19.749Z,13.20
2019-03-27T16:10:08.025Z,13.20
2019-03-27T16:15:09.127Z,13.40
2019-03-27T16:16:23.877Z,13.20
2019-03-27T16:19:13.066Z,13.10
2019-03-27T16:22:01.201Z,13.10
2019-03-27T16:24:49.639Z,13.00
2019-03-27T16:27:38.389Z,12.80
2019-03-27T16:31:05.493Z,12.60
2019-03-27T16:33:53.676Z,12.60
2019-03-27T16:36:42.723Z,12.40
2019-03-27T16:39:31.771Z,12.40
2019-03-27T16:42:20.637Z,12.30
2019-03-27T16:45:09.228Z,12.20
2019-03-27T16:48:01.883Z,12.20
2019-03-27T16:50:50.948Z,12.10
2019-03-27T16:53:39.098Z,12.20
2019-03-27T16:56:28.146Z,12.10
2019-03-27T16:59:16.621Z,12.20
2019-03-27T17:02:05.449Z,12.10
2019-03-27T17:04:53.561Z,12.10
2019-03-27T17:07:41.935Z,11.90
2019-03-27T17:10:30.534Z,11.80
2019-03-27T17:13:18.743Z,11.70
2019-03-27T17:16:06.598Z,11.70
2019-03-27T17:18:55.699Z,11.60
2019-03-27T17:21:47.118Z,11.40
2019-03-27T17:24:39.418Z,11.40
2019-03-27T17:27:29.035Z,11.30
2019-03-27T17:30:18.768Z,11.30
2019-03-27T17:33:07.596Z,11.20
2019-03-27T17:35:56.097Z,11.00
2019-03-27T17:38:44.315Z,10.90
2019-03-27T17:41:32.864Z,10.80
2019-03-27T17:44:29.241Z,10.50
2019-03-27T17:47:25.289Z,10.40
2019-03-27T17:50:13.905Z,10.30
2019-03-27T17:53:02.092Z,10.10
2019-03-27T17:55:50.816Z,10.00
2019-03-27T17:58:47.109Z,9.80
2019-03-27T18:01:37.154Z,9.60
2019-03-27T18:04:32.478Z,9.50
2019-03-27T18:07:20.896Z,9.20
2019-03-27T18:10:09.349Z,9.10
2019-03-27T18:12:58.806Z,8.90
2019-03-27T18:15:47.858Z,8.80
2019-03-27T18:18:36.303Z,8.70
2019-03-27T18:21:26.605Z,8.60
2019-03-27T18:24:16.728Z,8.50
2019-03-27T18:27:04.799Z,8.40
2019-03-27T18:30:16.773Z,8.30
2019-03-27T18:33:29.702Z,8.30
2019-03-27T18:36:17.840Z,8.30
2019-03-27T18:39:08.815Z,8.20
2019-03-27T18:41:57.537Z,8.30
2019-03-27T18:44:46.222Z,8.20
2019-03-27T18:47:34.693Z,8.20
2019-03-27T18:50:22.996Z,8.20
2019-03-27T18:53:33.844Z,8.20
2019-03-27T18:56:22.840Z,8.20
2019-03-27T18:59:11.212Z,8.10
2019-03-27T19:01:59.601Z,8.00
2019-03-27T19:04:48.116Z,7.90
2019-03-27T19:07:37.755Z,7.80
2019-03-27T19:10:28.579Z,7.70
2019-03-27T19:13:25.713Z,7.60
2019-03-27T19:16:16.208Z,7.50
2019-03-27T19:19:09.995Z,7.40
2019-03-27T19:22:03.837Z,7.20
2019-03-27T19:25:30.370Z,7.20
2019-03-27T19:28:21.666Z,7.10
2019-03-27T19:31:15.911Z,6.90
2019-03-27T19:34:16.374Z,6.80
2019-03-27T19:37:47.973Z,6.70
2019-03-27T19:40:29.218Z,6.50
2019-03-27T19:43:32.356Z,6.40
2019-03-27T19:46:24.854Z,6.40
2019-03-27T19:49:20.163Z,6.30
2019-03-27T19:52:09.014Z,6.20
2019-03-27T19:55:03.938Z,6.10
2019-03-27T19:57:52.396Z,6.00
2019-03-27T20:00:46.453Z,5.70
2019-03-27T20:03:47.452Z,5.70
2019-03-27T20:06:39.658Z,5.70
2019-03-27T20:09:30.802Z,5.60
2019-03-27T20:12:23.460Z,5.60
2019-03-27T20:15:28.227Z,5.50
2019-03-27T20:18:24.895Z,5.50
2019-03-27T20:21:17.143Z,5.50
2019-03-27T20:24:12.405Z,5.40
2019-03-27T20:27:04.335Z,5.30
2019-03-27T20:29:57.799Z,5.30
2019-03-27T20:33:08.031Z,5.40
2019-03-27T20:35:59.961Z,5.40
2019-03-27T20:38:49.274Z,5.50
2019-03-27T20:41:56.585Z,5.40
2019-03-27T20:44:48.187Z,5.30
2019-03-27T20:47:40.274Z,5.20
2019-03-27T20:50:40.315Z,5.00
2019-03-27T20:53:52.584Z,4.90
2019-03-27T20:56:42.776Z,4.90
2019-03-27T20:59:39.054Z,4.70
2019-03-27T21:02:38.460Z,4.70
2019-03-27T21:05:39.006Z,4.70
2019-03-27T21:12:21.885Z,4.70
2019-03-27T21:15:15.023Z,4.50
2019-03-27T21:22:33.452Z,4.30
2019-03-27T21:26:09.799Z,4.10
2019-03-27T21:33:06.496Z,3.80
2019-03-27T21:40:29.710Z,3.70
2019-03-27T21:44:09.995Z,3.80
2019-03-27T21:50:53.920Z,3.60
2019-03-27T22:06:25.580Z,3.30
2019-03-27T22:12:42.160Z,2.90
2019-03-27T22:15:45.166Z,3.00
2019-03-27T22:19:08.814Z,3.00
2019-03-27T22:22:31.759Z,2.90
2019-03-27T22:25:35.954Z,2.70
2019-03-27T22:28:24.621Z,2.70
2019-03-27T22:31:21.484Z,2.60
2019-03-27T22:34:15.786Z,2.60
2019-03-27T22:37:30.793Z,2.50
2019-03-27T22:40:22.083Z,2.40
2019-03-27T22:43:23.356Z,2.40
2019-03-27T22:47:08.648Z,2.30
2019-03-27T22:49:59.157Z,2.40
2019-03-27T22:53:08.978Z,2.30
2019-03-27T22:59:58.362Z,2.20
2019-03-27T23:03:17.662Z,2.20
2019-03-27T23:06:01.705Z,2.10
2019-03-27T23:09:14.530Z,2.10
2019-03-27T23:12:03.962Z,2.10
2019-03-27T23:15:32.936Z,2.10
2019-03-27T23:18:22.843Z,2.00
2019-03-27T23:21:45.833Z,2.00
2019-03-27T23:25:20.852Z,1.90
2019-03-27T23:28:14.487Z,1.70
2019-03-27T23:31:46.367Z,1.80
2019-03-27T23:34:41.608Z,1.80
2019-03-27T23:37:37.477Z,1.60
2019-03-27T23:40:31.372Z,1.50
2019-03-27T23:43:28.388Z,1.50
2019-03-27T23:46:30.462Z,1.50
2019-03-27T23:49:37.399Z,1.50
2019-03-27T23:52:31.380Z,1.50
2019-03-27T23:55:45.128Z,1.50
